Airfield :
LOGIN :

Register | Disclaimer

   EN    FR    IT 

 










Legend :    VFR   Marginal VFR   IFR   Intensive IFR   Very Intensive IFR
Visi :
Ceiling :
>= 8 km
>= 3000ft
5 to 8 km
1000 to 3000 ft
1500m to 5 km
500 to 1000 ft
800 to 1500m
200 to 500 ft
< 800m
< 200 ft
Symbols :   Thunderstorms  Fog  Heavy snow  Heavy precipitations  Wind > 20 kt
SIGMETs :     Misc.  Thunderstorms  Icing  Turbulence  Mountain Waves  Volcanic Ashes







- Airport Elevation : 171 ft
- IATA code : EGC
- Download approach charts


LFBE - Bergerac

CURRENT METAR :
  • 180300Z AUTO 05003KT CAVOK 14/12 Q1014 BECMG 15010KT

EXPIRED METARs :
  • 180230Z AUTO 06003KT CAVOK 14/12 Q1014 BECMG 15010KT
  • 180200Z AUTO 08004KT CAVOK 14/12 Q1014 BECMG 15010KT
  • 180130Z AUTO 07003KT CAVOK 14/12 Q1014 BECMG 15010KT
  • 180100Z AUTO 06004KT CAVOK 14/12 Q1015 BECMG 15010KT
  • 180030Z AUTO VRB03KT CAVOK 14/11 Q1015 NOSIG

TAF TAF LFBE
Valid from the 18 at 00:00 until the 19 at 00:00 UTC


172300Z 1800/1824 15010KT CAVOK
PROB30 1806/1808 1000 BCFG
TEMPO 1816/1819 28013KT 4000 SHRA BKN020
PROB40 1816/1819 24015G30KT 2500 TSRA BKN015CB
BECMG 1820/1822 VRB03KT BKN015
PROB30 1822/1824 1000 BCFG
No reported NOTAMs for that airfield.



MET'MAP, your aeronautical weather chart ! - Copyright ORBIFLY December 2007 - Disclaimer

ORBIFLY MET'MAP TEAM :

Programming & Development : Alexandra Zaïnal
Concept & Development : Baudouin d'Aumeries
Co-Development & Prog : Marc-Olivier Méhu
Technical & hardware support : Manuel Goepfert

Contact : metmap@orbifly.com




SOURCES & CREDITS :

   NOAA